Callawassie Island, South Carolina
Current Conditions -  °F | °C
As of 4:50 PM on Wednesday 22 Oct 2014 (Local Time) from KHXD Reporting Station
Clear Clear  
Wind Chill: 68°   Ceiling: Unl
Heat Index: 68°   Visibility: 10mi
Dew Point: 43°   Wind: 8mph
Humidity: 40%   Direction: 340°NNW
Pressure: 30.02"   Gusts: NA
Location:  32.3283°N, 80.8483°W
Report Text: KHXD 222050Z 34007KT 10SM SKC 20/06 A3002
Loading
Personal Weather Stations






























Interactive Weather Map
Tropical Storm Tracking
New forecast layout! Learn more

10-Day Weather Forecast

Advertisements
Track Severe Weather on mobile